Archival Weather

NSFA McMurdo Sound

NSFA McMurdo Sound, Antarctica (NZCM)

Report from: Thursday, September 21, 2023 10:13 AM UTC
Current time: Saturday, February 24, 2024 3:40 PM UTC

Current weather – Weather history – Daily summaries
Weather forecast

Present weatherBlowing snow
Temperature-6.5°C (20.3°F)
Wind chill-15.5°C (4.0°F)
Dew point-11.0°C (12.2°F)
Winds 19 kts (9.8 m/s, 21.9 mph) Vrb
Wind gusts 30 kts (15.4 m/s, 34.5 mph)
Winds variableWinds variable from South-Southeast (160°) to West-Southwest (250°)
Peak wind 30 kts (15.4 m/s, 34.5 mph) South (170°) at 10:06
Visibility6.2 mi. (10 km)
Clouds Few clouds 3,300 ft. (1,006 m)
Ceiling: Overcast 8,000 ft. (2,438 m)
Altimeter28.61 in.Hg (969 mB)
Relative humidity70 %
Density altitude-4,508 ft. (-1,374 m)
Sea-level pressure106.9 kPa (1069 mB, 31.58 in.Hg)
Remarks Fully automated report
Special weather observation
Automated weather observing station with precipitation discriminator
Flight conditions Visual Meteorological Conditions
Raw dataSPECI NZCM 211013Z AUTO 19019G30KT 160V250 9999 BLSN FEW033 OVC080 M07/M11 A2861 RMK AO2 PK WND 17030/1006 WSHFT 1009 SLP693 T10651110
An error has occurred. This application may no longer respond until reloaded. Reload 🗙